createdAt,value
2017-04-30T00:00:16.321Z,29.89
2017-04-30T00:01:26.080Z,29.89
2017-04-30T00:02:35.392Z,29.89
2017-04-30T00:03:45.311Z,29.79
2017-04-30T00:04:55.535Z,29.98
2017-04-30T00:06:05.781Z,29.89
2017-04-30T00:07:15.846Z,29.79
2017-04-30T00:08:25.757Z,29.69
2017-04-30T00:09:35.395Z,29.89
2017-04-30T00:10:45.306Z,29.69
2017-04-30T00:11:55.225Z,29.79
2017-04-30T00:13:05.289Z,29.79
2017-04-30T00:14:14.915Z,29.89
2017-04-30T00:15:24.818Z,29.98
2017-04-30T00:16:35.033Z,29.79
2017-04-30T00:17:44.943Z,29.69
2017-04-30T00:18:55.021Z,29.69
2017-04-30T00:20:05.261Z,29.89
2017-04-30T00:21:14.865Z,29.69
2017-04-30T00:22:24.810Z,29.79
2017-04-30T00:23:34.413Z,29.89
2017-04-30T00:24:44.734Z,29.89
2017-04-30T00:25:54.335Z,29.69
2017-04-30T00:27:04.251Z,29.87
2017-04-30T00:28:13.862Z,29.89
2017-04-30T00:29:24.076Z,29.69
2017-04-30T00:30:34.397Z,29.87
2017-04-30T00:31:44.308Z,29.89
2017-04-30T00:32:54.556Z,29.87
2017-04-30T00:34:04.468Z,29.87
2017-04-30T00:35:13.783Z,29.77
2017-04-30T00:36:24.107Z,29.68
2017-04-30T00:37:34.038Z,29.87
2017-04-30T00:38:44.260Z,29.77
2017-04-30T00:39:53.866Z,30.07
2017-04-30T00:41:03.779Z,29.97
2017-04-30T00:42:13.482Z,29.97
2017-04-30T00:43:22.470Z,29.87
2017-04-30T00:44:31.773Z,29.97
2017-04-30T00:45:41.988Z,29.87
2017-04-30T00:46:51.898Z,30.07
2017-04-30T00:48:01.916Z,29.87
2017-04-30T00:49:11.826Z,29.68
2017-04-30T00:50:21.736Z,29.87
2017-04-30T00:51:31.337Z,29.97
2017-04-30T00:52:40.980Z,29.68
2017-04-30T00:53:51.036Z,29.68
2017-04-30T00:55:00.961Z,30.07
2017-04-30T00:56:10.567Z,29.87
2017-04-30T00:57:19.866Z,29.87
2017-04-30T00:58:30.119Z,29.97
2017-04-30T00:59:39.881Z,29.97
2017-04-30T01:00:49.793Z,29.87
2017-04-30T01:02:00.015Z,29.77
2017-04-30T01:03:09.616Z,29.87
2017-04-30T01:04:18.926Z,29.87
2017-04-30T01:05:29.399Z,29.87
2017-04-30T01:06:39.024Z,29.87
2017-04-30T01:07:48.961Z,29.97
2017-04-30T01:08:58.868Z,29.68
2017-04-30T01:10:09.461Z,29.87
2017-04-30T01:11:19.830Z,29.68
2017-04-30T01:12:29.751Z,29.68
2017-04-30T01:13:39.976Z,29.68
2017-04-30T01:14:49.283Z,29.87
2017-04-30T01:15:59.206Z,29.87
2017-04-30T01:17:08.956Z,29.97
2017-04-30T01:18:18.862Z,29.87
2017-04-30T01:19:28.480Z,29.77
2017-04-30T01:20:38.102Z,29.87
2017-04-30T01:21:48.015Z,29.97
2017-04-30T01:22:58.071Z,29.87
2017-04-30T01:24:08.318Z,29.77
2017-04-30T01:25:18.227Z,29.97
2017-04-30T01:26:28.161Z,29.97
2017-04-30T01:27:38.084Z,29.77
2017-04-30T01:28:48.461Z,29.87
2017-04-30T01:29:58.679Z,29.77
2017-04-30T01:31:08.598Z,29.87
2017-04-30T01:32:18.503Z,29.87
2017-04-30T01:33:28.426Z,29.87
2017-04-30T01:34:38.813Z,29.87
2017-04-30T01:35:48.729Z,29.77
2017-04-30T01:36:58.645Z,29.77
2017-04-30T01:38:08.859Z,29.77
2017-04-30T01:39:18.781Z,29.77
2017-04-30T01:40:29.309Z,29.97
2017-04-30T01:41:38.597Z,29.77
2017-04-30T01:42:48.505Z,29.77
2017-04-30T01:43:58.433Z,29.87
2017-04-30T01:45:08.659Z,29.77
2017-04-30T01:46:18.714Z,29.77
2017-04-30T01:47:28.665Z,29.68
2017-04-30T01:48:37.964Z,29.68
2017-04-30T01:49:47.586Z,29.87
2017-04-30T01:50:57.495Z,29.97
2017-04-30T01:52:07.898Z,29.87
2017-04-30T01:53:17.816Z,29.29
2017-04-30T01:54:28.042Z,29.97
2017-04-30T01:55:38.263Z,29.58
2017-04-30T01:56:47.875Z,29.97
2017-04-30T01:57:57.639Z,29.97
2017-04-30T01:59:07.261Z,29.87
2017-04-30T02:00:17.183Z,29.97
2017-04-30T02:01:27.168Z,29.87
2017-04-30T02:02:37.131Z,30.26
2017-04-30T02:03:47.194Z,29.87
2017-04-30T02:04:57.418Z,29.87
2017-04-30T02:06:07.035Z,29.87
2017-04-30T02:07:16.634Z,29.97
2017-04-30T02:08:26.260Z,30.26
2017-04-30T02:09:36.651Z,29.97
2017-04-30T02:10:46.895Z,29.97
2017-04-30T02:11:56.489Z,30.07
2017-04-30T02:13:06.712Z,29.97
2017-04-30T02:14:16.955Z,29.49
2017-04-30T02:15:27.063Z,29.87
2017-04-30T02:16:36.676Z,29.97
2017-04-30T02:17:46.592Z,29.87
2017-04-30T02:18:56.501Z,29.97
2017-04-30T02:20:06.709Z,29.49
2017-04-30T02:21:17.086Z,29.39
2017-04-30T02:22:27.308Z,29.97
2017-04-30T02:23:37.540Z,29.49
2017-04-30T02:24:47.444Z,29.49
2017-04-30T02:25:57.368Z,29.39
2017-04-30T02:27:07.387Z,29.49
2017-04-30T02:28:17.298Z,29.39
2017-04-30T02:29:27.275Z,29.49
2017-04-30T02:30:37.499Z,29.39
2017-04-30T02:31:47.113Z,29.39
2017-04-30T02:32:57.179Z,29.39
2017-04-30T02:34:07.117Z,29.39
2017-04-30T02:35:16.716Z,29.49
2017-04-30T02:36:26.623Z,29.39
2017-04-30T02:37:36.545Z,29.49
2017-04-30T02:38:46.249Z,29.49
2017-04-30T02:39:56.158Z,29.58
2017-04-30T02:41:05.456Z,29.77
2017-04-30T02:42:14.748Z,29.58
2017-04-30T02:43:24.676Z,29.77
2017-04-30T02:44:34.704Z,29.77
2017-04-30T02:45:44.303Z,29.77
2017-04-30T02:46:53.913Z,29.77
2017-04-30T02:48:03.524Z,29.77
2017-04-30T02:49:13.130Z,29.77
2017-04-30T02:50:23.459Z,29.39
2017-04-30T02:51:33.678Z,29.68
2017-04-30T02:52:43.327Z,29.87
2017-04-30T02:53:52.981Z,29.77
2017-04-30T02:55:02.924Z,29.58
2017-04-30T02:56:12.995Z,29.68
2017-04-30T02:57:23.219Z,29.58
2017-04-30T02:58:33.430Z,29.68
2017-04-30T02:59:43.036Z,29.58
2017-04-30T03:00:52.665Z,29.68
2017-04-30T03:02:02.720Z,29.68
2017-04-30T03:03:12.325Z,29.68
2017-04-30T03:04:21.625Z,29.77
2017-04-30T03:05:31.537Z,29.87
2017-04-30T03:06:41.194Z,29.87
2017-04-30T03:07:51.251Z,29.58
2017-04-30T03:09:01.466Z,29.68
2017-04-30T03:10:11.066Z,29.58
2017-04-30T03:11:21.281Z,29.87
2017-04-30T03:12:31.194Z,29.87
2017-04-30T03:13:41.265Z,29.87
2017-04-30T03:14:51.499Z,29.87
2017-04-30T03:16:01.147Z,29.39
2017-04-30T03:17:11.071Z,29.87
2017-04-30T03:18:20.375Z,29.87
2017-04-30T03:19:30.447Z,29.29
2017-04-30T03:20:40.366Z,29.49
2017-04-30T03:21:50.292Z,29.29
2017-04-30T03:23:00.515Z,29.87
2017-04-30T03:24:10.431Z,29.87
2017-04-30T03:25:20.502Z,29.39
2017-04-30T03:26:30.200Z,29.77
2017-04-30T03:27:40.413Z,29.77
2017-04-30T03:28:50.029Z,29.29
2017-04-30T03:30:00.258Z,29.87
2017-04-30T03:31:10.346Z,29.77
2017-04-30T03:32:20.258Z,29.87
2017-04-30T03:33:29.859Z,29.87
2017-04-30T03:34:40.080Z,29.39
2017-04-30T03:35:50.306Z,29.76
2017-04-30T03:37:00.378Z,29.86
2017-04-30T03:38:10.284Z,29.29
2017-04-30T03:39:19.591Z,29.29
2017-04-30T03:40:28.897Z,29.77
2017-04-30T03:41:38.806Z,29.28
2017-04-30T03:42:48.879Z,29.76
2017-04-30T03:43:59.107Z,29.29
2017-04-30T03:45:08.710Z,29.38
2017-04-30T03:46:18.950Z,29.38
2017-04-30T03:47:28.857Z,29.39
2017-04-30T03:48:39.233Z,29.47
2017-04-30T03:49:49.148Z,29.49
2017-04-30T03:50:59.373Z,29.38
2017-04-30T03:52:09.295Z,29.38
2017-04-30T03:53:18.593Z,29.29
2017-04-30T03:54:28.657Z,29.49
2017-04-30T03:55:38.269Z,29.47
2017-04-30T03:56:48.173Z,29.39
2017-04-30T03:57:57.778Z,29.47
2017-04-30T03:59:07.417Z,29.57
2017-04-30T04:00:17.784Z,29.38
2017-04-30T04:01:27.689Z,29.38
2017-04-30T04:02:37.597Z,29.47
2017-04-30T04:03:46.890Z,29.66
2017-04-30T04:04:56.815Z,29.38
2017-04-30T04:06:06.872Z,29.66
2017-04-30T04:07:16.787Z,29.58
2017-04-30T04:08:27.003Z,29.68
2017-04-30T04:09:37.217Z,29.76
2017-04-30T04:10:47.433Z,29.76
2017-04-30T04:11:57.194Z,29.76
2017-04-30T04:13:07.425Z,29.76
2017-04-30T04:14:17.337Z,29.28
2017-04-30T04:15:26.968Z,29.77
2017-04-30T04:16:36.899Z,29.18
2017-04-30T04:17:47.267Z,29.47
2017-04-30T04:18:56.870Z,29.28
2017-04-30T04:20:06.791Z,29.28
2017-04-30T04:21:16.703Z,29.47
2017-04-30T04:22:26.316Z,29.68
2017-04-30T04:23:36.341Z,29.38
2017-04-30T04:24:46.288Z,29.39
2017-04-30T04:25:56.571Z,29.29
2017-04-30T04:27:06.496Z,29.08
2017-04-30T04:28:15.822Z,29.38
2017-04-30T04:29:25.223Z,29.29
2017-04-30T04:30:35.128Z,29.49
2017-04-30T04:31:45.049Z,29.2
2017-04-30T04:32:54.671Z,29.39
2017-04-30T04:34:04.965Z,29.2
2017-04-30T04:35:15.331Z,29.2
2017-04-30T04:36:25.267Z,29
2017-04-30T04:37:35.203Z,29.39
2017-04-30T04:38:44.807Z,29.1
2017-04-30T04:39:55.042Z,29.1
2017-04-30T04:41:05.370Z,29.18
2017-04-30T04:42:15.293Z,29.2
2017-04-30T04:43:24.608Z,29.2
2017-04-30T04:44:34.847Z,29.2
2017-04-30T04:45:44.765Z,29.2
2017-04-30T04:46:54.800Z,29.29
2017-04-30T04:48:05.042Z,29.2
2017-04-30T04:49:15.266Z,29.29
2017-04-30T04:50:25.495Z,29.2
2017-04-30T04:51:35.401Z,29.2
2017-04-30T04:52:45.112Z,28.72
2017-04-30T04:53:54.740Z,28.72
2017-04-30T04:55:04.958Z,29.29
2017-04-30T04:56:14.555Z,29.39
2017-04-30T04:57:24.459Z,29.39
2017-04-30T04:58:34.474Z,29.58
2017-04-30T04:59:44.397Z,28.91
2017-04-30T05:00:54.008Z,28.91
2017-04-30T05:02:03.930Z,28.91
2017-04-30T05:03:13.852Z,29.1
2017-04-30T05:04:24.215Z,29
2017-04-30T05:05:34.445Z,29.1
2017-04-30T05:06:44.662Z,29
2017-04-30T05:07:54.589Z,28.81
2017-04-30T05:09:04.203Z,28.63
2017-04-30T05:10:14.539Z,27.76
2017-04-30T05:11:24.445Z,27.78
2017-04-30T05:12:34.386Z,27.39
2017-04-30T05:13:44.311Z,26.92
2017-04-30T05:14:54.258Z,26.82
2017-04-30T05:16:03.656Z,26.07
2017-04-30T05:17:13.583Z,26.17
2017-04-30T05:18:23.813Z,25.5
2017-04-30T05:19:34.045Z,25.32
2017-04-30T05:20:43.654Z,25.13
2017-04-30T05:21:53.973Z,24.55
2017-04-30T05:23:03.886Z,24.56
2017-04-30T05:24:13.808Z,24.66
2017-04-30T05:25:23.722Z,24.37
2017-04-30T05:26:33.340Z,23.99
2017-04-30T05:27:43.360Z,24.09
2017-04-30T05:28:53.294Z,24.18
2017-04-30T05:30:03.525Z,23.6
2017-04-30T05:31:12.854Z,23.42
2017-04-30T05:32:23.072Z,23.61
2017-04-30T05:33:33.401Z,23.43
2017-04-30T05:34:43.636Z,23.24
2017-04-30T05:35:53.240Z,22.77
2017-04-30T05:37:02.857Z,22.48
2017-04-30T05:38:12.466Z,22.49
2017-04-30T05:39:22.494Z,22.2
2017-04-30T05:40:32.409Z,21.92
2017-04-30T05:41:42.633Z,21.72
2017-04-30T05:42:52.920Z,21.44
2017-04-30T05:44:02.847Z,21.45
2017-04-30T05:45:12.868Z,20.87
2017-04-30T05:46:22.801Z,20.68
2017-04-30T05:47:32.400Z,20.59
2017-04-30T05:48:42.637Z,20.3
2017-04-30T05:49:52.866Z,20.31
2017-04-30T05:51:03.252Z,20.01
2017-04-30T05:52:13.161Z,19.73
2017-04-30T05:53:23.078Z,19.64
2017-04-30T05:54:33.301Z,19.94
2017-04-30T05:55:43.591Z,19.45
2017-04-30T05:56:53.902Z,19.27
2017-04-30T05:58:03.503Z,18.98
2017-04-30T05:59:13.720Z,19.08
2017-04-30T06:00:23.331Z,18.88
2017-04-30T06:01:32.936Z,18.8
2017-04-30T06:02:42.963Z,18.8
2017-04-30T06:03:52.575Z,18.62
2017-04-30T06:05:02.505Z,18.42
2017-04-30T06:06:12.742Z,18.13
2017-04-30T06:07:22.662Z,17.94
2017-04-30T06:08:32.678Z,18.05
2017-04-30T06:09:42.600Z,17.85
2017-04-30T06:10:52.845Z,17.66
2017-04-30T06:12:02.768Z,17.85
2017-04-30T06:13:12.066Z,17.37
2017-04-30T06:14:22.404Z,17.47
2017-04-30T06:15:32.331Z,17.96
2017-04-30T06:16:42.250Z,18.44
2017-04-30T06:17:52.465Z,19.01
2017-04-30T06:19:02.411Z,19.68
2017-04-30T06:20:12.440Z,19.76
2017-04-30T06:21:22.355Z,20.25
2017-04-30T06:22:32.282Z,21.01
2017-04-30T06:23:42.203Z,21.39
2017-04-30T06:24:51.507Z,21.88
2017-04-30T06:26:01.537Z,22.25
2017-04-30T06:27:11.143Z,22.53
2017-04-30T06:28:21.057Z,22.72
2017-04-30T06:29:30.980Z,22.81
2017-04-30T06:30:40.898Z,23.38
2017-04-30T06:31:51.220Z,23.58
2017-04-30T06:33:01.140Z,23.76
2017-04-30T06:34:11.074Z,23.94
2017-04-30T06:35:21.312Z,24.33
2017-04-30T06:36:31.558Z,24.52
2017-04-30T06:37:41.885Z,24.8
2017-04-30T06:38:51.813Z,24.61
2017-04-30T06:40:01.750Z,24.8
2017-04-30T06:41:11.677Z,25.18
2017-04-30T06:42:21.307Z,25.27
2017-04-30T06:43:31.048Z,25.27
2017-04-30T06:44:41.291Z,25.37
2017-04-30T06:45:51.220Z,25.74
2017-04-30T06:47:01.158Z,25.74
2017-04-30T06:48:11.421Z,25.74
2017-04-30T06:49:21.753Z,25.84
2017-04-30T06:50:31.682Z,26.04
2017-04-30T06:51:41.605Z,25.93
2017-04-30T06:52:51.223Z,25.93
2017-04-30T06:54:01.138Z,25.83
2017-04-30T06:55:11.088Z,25.93
2017-04-30T06:56:21.312Z,26.21
2017-04-30T06:57:31.549Z,26.03
2017-04-30T06:58:40.863Z,26.12
2017-04-30T06:59:50.475Z,26.12
2017-04-30T07:01:00.797Z,25.93
2017-04-30T07:02:10.714Z,26.03
2017-04-30T07:03:20.639Z,26.03
2017-04-30T07:04:30.861Z,25.93
2017-04-30T07:05:40.781Z,26.03
2017-04-30T07:06:51.595Z,26.12
2017-04-30T07:08:02.063Z,26.03
2017-04-30T07:09:12.048Z,26.21
2017-04-30T07:10:22.033Z,26.03
2017-04-30T07:11:32.592Z,25.93
2017-04-30T07:12:42.366Z,25.93
2017-04-30T07:13:52.365Z,25.73
2017-04-30T07:15:01.993Z,25.63
2017-04-30T07:16:12.281Z,25.83
2017-04-30T07:17:22.209Z,25.73
2017-04-30T07:18:32.606Z,25.44
2017-04-30T07:19:42.536Z,25.15
2017-04-30T07:20:52.465Z,24.19
2017-04-30T07:22:02.105Z,23.25
2017-04-30T07:23:12.355Z,22.02
2017-04-30T07:24:22.433Z,21.45
2017-04-30T07:25:32.761Z,20.21
2017-04-30T07:26:43.019Z,19.73
2017-04-30T07:27:53.663Z,19.55
2017-04-30T07:29:03.322Z,19.27
2017-04-30T07:30:13.710Z,18.8
2017-04-30T07:31:24.036Z,18.42
2017-04-30T07:32:35.027Z,18.04
2017-04-30T07:33:44.645Z,17.85
2017-04-30T07:34:54.274Z,17.37
2017-04-30T07:36:04.661Z,17.37
2017-04-30T07:37:13.984Z,17.38
2017-04-30T07:38:23.897Z,17.19
2017-04-30T07:39:33.519Z,17.39
2017-04-30T07:40:43.445Z,17
2017-04-30T07:41:53.532Z,16.91
2017-04-30T07:43:03.754Z,17
2017-04-30T07:44:13.672Z,16.92
2017-04-30T07:45:23.913Z,16.82
2017-04-30T07:46:33.844Z,16.62
2017-04-30T07:47:44.218Z,16.42
2017-04-30T07:48:54.472Z,16.24
2017-04-30T07:50:04.701Z,16.34
2017-04-30T07:51:14.979Z,16.35
2017-04-30T07:52:25.216Z,16.35
2017-04-30T07:53:35.618Z,16.44
2017-04-30T07:54:45.549Z,16.35
2017-04-30T07:55:55.480Z,16.54
2017-04-30T07:57:05.727Z,16.54
2017-04-30T07:58:15.069Z,16.45
2017-04-30T07:59:25.466Z,16.45
2017-04-30T08:00:35.798Z,16.35
2017-04-30T08:01:45.750Z,16.06
2017-04-30T08:02:55.374Z,16.25
2017-04-30T08:04:05.614Z,16.17
2017-04-30T08:05:15.386Z,16.27
2017-04-30T08:06:25.338Z,16.27
2017-04-30T08:07:35.303Z,16.17
2017-04-30T08:08:44.954Z,16.27
2017-04-30T08:09:55.203Z,16.27
2017-04-30T08:11:04.994Z,16.37
2017-04-30T08:12:14.959Z,16.27
2017-04-30T08:13:24.578Z,15.88
2017-04-30T08:14:33.890Z,15.88
2017-04-30T08:15:44.116Z,15.99
2017-04-30T08:16:54.216Z,15.89
2017-04-30T08:18:03.829Z,15.99
2017-04-30T08:19:13.770Z,15.99
2017-04-30T08:20:24.017Z,16.09
2017-04-30T08:21:33.943Z,16.09
2017-04-30T08:22:44.009Z,16.09
2017-04-30T08:23:53.927Z,16.09
2017-04-30T08:25:03.555Z,16.09
2017-04-30T08:26:13.161Z,15.99
2017-04-30T08:27:22.487Z,15.89
2017-04-30T08:28:32.942Z,16.39
2017-04-30T08:29:42.876Z,16.28
2017-04-30T08:30:52.809Z,16.39
2017-04-30T08:32:02.762Z,16.38
2017-04-30T08:33:13.087Z,16.87
2017-04-30T08:34:22.870Z,16.87
2017-04-30T08:35:33.157Z,17.05
2017-04-30T08:36:43.399Z,17.15
2017-04-30T08:37:53.318Z,17.15
2017-04-30T08:39:02.950Z,17.25
2017-04-30T08:40:13.037Z,17.15
2017-04-30T08:41:22.660Z,17.45
2017-04-30T08:42:32.926Z,17.34
2017-04-30T08:43:42.856Z,17.92
2017-04-30T08:44:52.798Z,18.21
2017-04-30T08:46:03.163Z,18.88
2017-04-30T08:47:12.167Z,19.07
2017-04-30T08:48:22.114Z,19.84
2017-04-30T08:49:32.205Z,20.32
2017-04-30T08:50:42.907Z,21
2017-04-30T08:51:53.021Z,21.46
2017-04-30T08:53:02.721Z,22.22
2017-04-30T08:54:12.985Z,22.69
2017-04-30T08:55:22.010Z,23.07
2017-04-30T08:56:31.992Z,23.63
2017-04-30T08:57:42.113Z,24.5
2017-04-30T08:58:52.035Z,24.97
2017-04-30T09:00:02.290Z,25.15
2017-04-30T09:01:11.912Z,25.63
2017-04-30T09:02:22.202Z,25.81
2017-04-30T09:03:31.629Z,26.1
2017-04-30T09:04:40.964Z,26.57
2017-04-30T09:05:51.195Z,26.46
2017-04-30T09:07:00.860Z,26.85
2017-04-30T09:08:10.789Z,27.22
2017-04-30T09:09:20.872Z,27.5
2017-04-30T09:10:31.112Z,27.79
2017-04-30T09:11:41.363Z,27.97
2017-04-30T09:12:51.326Z,27.87
2017-04-30T09:14:01.554Z,27.86
2017-04-30T09:15:11.018Z,28.44
2017-04-30T09:16:20.993Z,28.54
2017-04-30T09:17:30.304Z,28.43
2017-04-30T09:18:39.927Z,28.43
2017-04-30T09:19:50.178Z,28.52
2017-04-30T09:21:00.363Z,28.81
2017-04-30T09:22:10.843Z,28.61
2017-04-30T09:23:21.085Z,28.7
2017-04-30T09:24:31.408Z,28.7
2017-04-30T09:25:41.327Z,28.7
2017-04-30T09:26:51.398Z,28.7
2017-04-30T09:28:01.622Z,28.59
2017-04-30T09:29:11.237Z,28.59
2017-04-30T09:30:21.501Z,28.78
2017-04-30T09:31:31.770Z,28.5
2017-04-30T09:32:41.536Z,28.58
2017-04-30T09:33:51.463Z,28.67
2017-04-30T09:35:01.169Z,28.87
2017-04-30T09:36:11.766Z,29.06
2017-04-30T09:37:21.983Z,28.97
2017-04-30T09:38:31.749Z,28.87
2017-04-30T09:39:41.368Z,28.58
2017-04-30T09:40:51.320Z,28.77
2017-04-30T09:42:01.566Z,28.66
2017-04-30T09:43:11.794Z,28.67
2017-04-30T09:44:22.186Z,28.56
2017-04-30T09:45:31.816Z,28.47
2017-04-30T09:46:41.438Z,28.47
2017-04-30T09:47:51.664Z,28.47
2017-04-30T09:49:01.608Z,28.28
2017-04-30T09:50:11.370Z,27.8
2017-04-30T09:51:21.338Z,27.98
2017-04-30T09:52:31.281Z,27.89
2017-04-30T09:53:41.213Z,27.89
2017-04-30T09:54:51.454Z,27.8
2017-04-30T09:56:01.534Z,27.89
2017-04-30T09:57:11.451Z,27.5
2017-04-30T09:58:21.375Z,27.6
2017-04-30T09:59:31.306Z,27.4
2017-04-30T10:00:40.934Z,27.4
2017-04-30T10:01:51.341Z,27.23
2017-04-30T10:03:01.568Z,27.03
2017-04-30T10:04:11.489Z,26.84
2017-04-30T10:05:21.099Z,26.65
2017-04-30T10:06:31.020Z,26.75
2017-04-30T10:07:41.414Z,26.65
2017-04-30T10:08:51.681Z,26.35
2017-04-30T10:10:01.638Z,26.35
2017-04-30T10:11:11.860Z,26.26
2017-04-30T10:12:22.090Z,26.18
2017-04-30T10:13:32.161Z,25.89
2017-04-30T10:14:41.769Z,25.89
2017-04-30T10:15:51.992Z,26.08
2017-04-30T10:17:02.224Z,25.79
2017-04-30T10:18:11.836Z,25.79
2017-04-30T10:19:21.619Z,25.7
2017-04-30T10:20:31.240Z,25.6
2017-04-30T10:21:41.142Z,25.5
2017-04-30T10:22:50.777Z,25.6
2017-04-30T10:24:00.396Z,25.4
2017-04-30T10:25:10.794Z,25.31
2017-04-30T10:26:20.733Z,25.4
2017-04-30T10:27:30.979Z,25.4
2017-04-30T10:28:40.606Z,25.21
2017-04-30T10:29:50.239Z,25.23
2017-04-30T10:31:00.336Z,25.4
2017-04-30T10:32:10.311Z,25.4
2017-04-30T10:33:20.229Z,25.21
2017-04-30T10:34:30.461Z,25.12
2017-04-30T10:35:40.429Z,25.21
2017-04-30T10:36:50.839Z,25.42
2017-04-30T10:38:00.789Z,25.21
2017-04-30T10:39:11.046Z,24.92
2017-04-30T10:40:20.396Z,25.02
2017-04-30T10:41:30.011Z,24.93
2017-04-30T10:42:40.392Z,25.02
2017-04-30T10:43:50.630Z,25.13
2017-04-30T10:45:00.244Z,24.74
2017-04-30T10:46:10.484Z,24.65
2017-04-30T10:47:20.417Z,24.65
2017-04-30T10:48:30.242Z,24.35
2017-04-30T10:49:39.584Z,24.45
2017-04-30T10:50:49.838Z,24.74
2017-04-30T10:51:59.441Z,24.65
2017-04-30T10:53:09.071Z,24.74
2017-04-30T10:54:19.115Z,24.45
2017-04-30T10:55:29.036Z,24.55
2017-04-30T10:56:39.294Z,24.74
2017-04-30T10:57:49.242Z,24.74
2017-04-30T10:58:59.475Z,24.65
2017-04-30T11:00:09.803Z,24.74
2017-04-30T11:01:19.430Z,24.74
2017-04-30T11:02:29.040Z,24.35
2017-04-30T11:03:38.691Z,24.35
2017-04-30T11:04:47.998Z,24.26
2017-04-30T11:05:58.322Z,24.35
2017-04-30T11:07:07.944Z,24.65
2017-04-30T11:08:17.581Z,24.35
2017-04-30T11:09:27.834Z,24.55
2017-04-30T11:10:37.762Z,24.45
2017-04-30T11:11:47.816Z,24.55
2017-04-30T11:12:58.069Z,24.55
2017-04-30T11:14:07.401Z,24.55
2017-04-30T11:15:17.652Z,24.74
2017-04-30T11:16:27.594Z,24.65
2017-04-30T11:17:37.380Z,24.26
2017-04-30T11:18:47.694Z,24.26
2017-04-30T11:19:58.001Z,24.26
2017-04-30T11:21:07.940Z,24.26
2017-04-30T11:22:17.851Z,24.07
2017-04-30T11:23:28.237Z,24.16
2017-04-30T11:24:38.170Z,24.16
2017-04-30T11:25:48.082Z,24.07
2017-04-30T11:26:58.000Z,24.16
2017-04-30T11:28:07.927Z,24.07
2017-04-30T11:29:18.353Z,24.16
2017-04-30T11:30:28.277Z,24.26
2017-04-30T11:31:38.180Z,24.16
2017-04-30T11:32:47.785Z,24.26
2017-04-30T11:33:58.009Z,24.26
2017-04-30T11:35:07.794Z,24.26
2017-04-30T11:36:18.022Z,24.16
2017-04-30T11:37:27.957Z,24.16
2017-04-30T11:38:38.195Z,24.35
2017-04-30T11:39:47.828Z,24.26
2017-04-30T11:40:58.207Z,24.26
2017-04-30T11:42:08.424Z,24.26
2017-04-30T11:43:18.643Z,24.35
2017-04-30T11:44:28.591Z,24.26
2017-04-30T11:45:38.840Z,24.35
2017-04-30T11:46:48.294Z,24.26
2017-04-30T11:47:58.893Z,24.26
2017-04-30T11:49:07.901Z,24.26
2017-04-30T11:50:17.835Z,24.45
2017-04-30T11:51:28.063Z,24.45
2017-04-30T11:52:38.441Z,24.26
2017-04-30T11:53:48.363Z,24.55
2017-04-30T11:54:58.305Z,24.16
2017-04-30T11:56:08.260Z,24.35
2017-04-30T11:57:18.225Z,24.24
2017-04-30T11:58:28.317Z,24.26
2017-04-30T11:59:38.254Z,24.24
2017-04-30T12:00:48.478Z,24.26
2017-04-30T12:01:57.792Z,24.26
2017-04-30T12:03:07.096Z,24.16
2017-04-30T12:04:17.177Z,24.16
2017-04-30T12:05:27.096Z,24.16
2017-04-30T12:06:36.406Z,24.16
2017-04-30T12:07:46.638Z,24.26
2017-04-30T12:08:56.551Z,24.15
2017-04-30T12:10:06.932Z,24.24
2017-04-30T12:11:16.235Z,24.24
2017-04-30T12:12:25.842Z,24.26
2017-04-30T12:13:35.769Z,24.15
2017-04-30T12:14:45.374Z,24.15
2017-04-30T12:15:55.142Z,24.24
2017-04-30T12:17:05.379Z,24.24
2017-04-30T12:18:15.300Z,24.15
2017-04-30T12:19:25.219Z,24.54
2017-04-30T12:20:34.826Z,24.34
2017-04-30T12:21:45.194Z,24.15
2017-04-30T12:22:55.116Z,24.24
2017-04-30T12:24:05.023Z,24.24
2017-04-30T12:25:14.625Z,24.24
2017-04-30T12:26:24.536Z,24.15
2017-04-30T12:27:34.923Z,24.24
2017-04-30T12:28:44.884Z,24.24
2017-04-30T12:29:54.494Z,24.34
2017-04-30T12:31:04.405Z,24.15
2017-04-30T12:32:14.319Z,24.15
2017-04-30T12:33:24.704Z,24.15
2017-04-30T12:34:34.325Z,24.24
2017-04-30T12:35:44.248Z,24.05
2017-04-30T12:36:53.547Z,24.15
2017-04-30T12:38:02.853Z,24.24
2017-04-30T12:39:12.630Z,24.24
2017-04-30T12:40:22.248Z,24.24
2017-04-30T12:41:32.164Z,24.44
2017-04-30T12:42:42.080Z,24.05
2017-04-30T12:43:52.000Z,24.34
2017-04-30T12:45:02.379Z,24.34
2017-04-30T12:46:12.288Z,24.24
2017-04-30T12:47:22.203Z,24.15
2017-04-30T12:48:32.146Z,24.05
2017-04-30T12:49:41.496Z,24.15
2017-04-30T12:50:51.880Z,24.05
2017-04-30T12:52:02.097Z,24.15
2017-04-30T12:53:11.700Z,24.05
2017-04-30T12:54:21.627Z,24.15
2017-04-30T12:55:31.553Z,24.15
2017-04-30T12:56:41.622Z,24.34
2017-04-30T12:57:51.547Z,24.15
2017-04-30T12:59:01.458Z,24.05
2017-04-30T13:00:11.688Z,24.05
2017-04-30T13:01:21.916Z,24.34
2017-04-30T13:02:31.625Z,24.05
2017-04-30T13:03:41.536Z,24.15
2017-04-30T13:04:51.772Z,24.05
2017-04-30T13:06:01.997Z,24.15
2017-04-30T13:07:11.609Z,24.15
2017-04-30T13:08:21.343Z,24.15
2017-04-30T13:09:31.573Z,24.05
2017-04-30T13:10:41.492Z,24.05
2017-04-30T13:11:51.714Z,24.24
2017-04-30T13:13:01.625Z,24.15
2017-04-30T13:14:11.944Z,24.15
2017-04-30T13:15:21.244Z,24.15
2017-04-30T13:16:31.454Z,24.15
2017-04-30T13:17:41.385Z,24.24
2017-04-30T13:18:50.684Z,24.05
2017-04-30T13:20:00.397Z,24.05
2017-04-30T13:21:10.308Z,24.15
2017-04-30T13:22:19.599Z,24.05
2017-04-30T13:23:29.513Z,24.05
2017-04-30T13:24:39.742Z,24.05
2017-04-30T13:25:50.067Z,24.15
2017-04-30T13:26:59.670Z,24.15
2017-04-30T13:28:09.599Z,24.24
2017-04-30T13:29:19.531Z,24.15
2017-04-30T13:30:29.807Z,24.05
2017-04-30T13:31:38.945Z,24.24
2017-04-30T13:32:49.177Z,24.05
2017-04-30T13:33:59.404Z,23.96
2017-04-30T13:35:09.321Z,23.96
2017-04-30T13:36:19.228Z,23.96
2017-04-30T13:37:29.284Z,23.96
2017-04-30T13:38:38.904Z,23.96
2017-04-30T13:39:49.127Z,24.24
2017-04-30T13:40:59.364Z,23.96
2017-04-30T13:42:09.599Z,24.05
2017-04-30T13:43:19.368Z,24.05
2017-04-30T13:44:29.643Z,24.24
2017-04-30T13:45:39.292Z,24.24
2017-04-30T13:46:48.904Z,24.24
2017-04-30T13:47:58.841Z,23.86
2017-04-30T13:49:09.214Z,24.05
2017-04-30T13:50:19.138Z,24.05
2017-04-30T13:51:29.056Z,24.24
2017-04-30T13:52:39.663Z,24.24
2017-04-30T13:53:49.293Z,24.24
2017-04-30T13:54:59.380Z,24.24
2017-04-30T13:56:09.302Z,24.15
2017-04-30T13:57:19.534Z,24.15
2017-04-30T13:58:29.449Z,24.05
2017-04-30T13:59:39.676Z,24.15
2017-04-30T14:00:49.763Z,23.86
2017-04-30T14:01:59.678Z,24.05
2017-04-30T14:03:09.279Z,24.24
2017-04-30T14:04:19.185Z,24.15
2017-04-30T14:05:29.402Z,24.34
2017-04-30T14:06:39.778Z,24.15
2017-04-30T14:07:49.701Z,24.44
2017-04-30T14:08:59.926Z,24.24
2017-04-30T14:10:09.543Z,24.15
2017-04-30T14:11:19.772Z,24.24
2017-04-30T14:12:29.532Z,24.44
2017-04-30T14:13:38.832Z,24.34
2017-04-30T14:14:48.743Z,24.44
2017-04-30T14:15:58.973Z,24.44
2017-04-30T14:17:09.203Z,24.24
2017-04-30T14:18:19.573Z,24.44
2017-04-30T14:19:28.900Z,24.24
2017-04-30T14:20:38.828Z,24.24
2017-04-30T14:21:49.042Z,24.24
2017-04-30T14:22:59.263Z,24.05
2017-04-30T14:24:09.017Z,24.15
2017-04-30T14:25:18.955Z,24.15
2017-04-30T14:26:28.870Z,23.76
2017-04-30T14:27:39.098Z,24.24
2017-04-30T14:28:49.018Z,24.24
2017-04-30T14:29:58.804Z,24.34
2017-04-30T14:31:08.103Z,24.24
2017-04-30T14:32:18.023Z,24.24
2017-04-30T14:33:27.947Z,24.34
2017-04-30T14:34:38.191Z,24.05
2017-04-30T14:35:48.259Z,24.15
2017-04-30T14:36:58.189Z,24.15
2017-04-30T14:38:07.511Z,24.24
2017-04-30T14:39:17.425Z,24.24
2017-04-30T14:40:27.664Z,24.24
2017-04-30T14:41:37.432Z,24.05
2017-04-30T14:42:47.360Z,24.15
2017-04-30T14:43:57.608Z,24.05
2017-04-30T14:45:08.243Z,24.24
2017-04-30T14:46:17.854Z,24.34
2017-04-30T14:47:28.258Z,24.05
2017-04-30T14:48:38.195Z,23.96
2017-04-30T14:49:48.811Z,24.24
2017-04-30T14:50:59.042Z,23.96
2017-04-30T14:52:08.962Z,24.05
2017-04-30T14:53:19.040Z,24.05
2017-04-30T14:54:28.664Z,24.24
2017-04-30T14:55:38.631Z,24.34
2017-04-30T14:56:48.542Z,24.26
2017-04-30T14:57:58.450Z,24.05
2017-04-30T14:59:08.817Z,24.34
2017-04-30T15:00:18.739Z,24.24
2017-04-30T15:01:28.049Z,24.24
2017-04-30T15:02:38.309Z,24.26